sensor_id;sensor_type;location;lat;lon;timestamp;P1;durP1;ratioP1;P2;durP2;ratioP2
20857;SDS011;10589;53.636;10.012;2023-03-31T03:47:10;33.93;;;8.63;;
20857;SDS011;10589;53.636;10.012;2023-03-31T03:49:37;31.00;;;9.47;;
20857;SDS011;10589;53.636;10.012;2023-03-31T03:52:03;29.93;;;9.00;;
20857;SDS011;10589;53.636;10.012;2023-03-31T03:54:28;32.30;;;9.30;;
20857;SDS011;10589;53.636;10.012;2023-03-31T03:56:54;33.73;;;9.83;;
20857;SDS011;10589;53.636;10.012;2023-03-31T03:59:20;27.23;;;9.30;;
20857;SDS011;10589;53.636;10.012;2023-03-31T04:01:45;29.23;;;8.57;;
20857;SDS011;10589;53.636;10.012;2023-03-31T04:04:11;28.53;;;8.93;;
20857;SDS011;10589;53.636;10.012;2023-03-31T04:06:38;29.70;;;9.77;;
20857;SDS011;10589;53.636;10.012;2023-03-31T04:09:03;28.03;;;8.97;;
20857;SDS011;10589;53.636;10.012;2023-03-31T04:11:29;34.83;;;10.20;;
20857;SDS011;10589;53.636;10.012;2023-03-31T04:13:55;29.33;;;9.40;;
20857;SDS011;10589;53.636;10.012;2023-03-31T04:16:21;34.63;;;9.43;;
20857;SDS011;10589;53.636;10.012;2023-03-31T04:18:50;33.37;;;9.37;;
20857;SDS011;10589;53.636;10.012;2023-03-31T04:21:16;27.70;;;9.17;;
20857;SDS011;10589;53.636;10.012;2023-03-31T04:23:49;31.63;;;9.93;;
20857;SDS011;10589;53.636;10.012;2023-03-31T04:26:29;33.37;;;10.10;;
20857;SDS011;10589;53.636;10.012;2023-03-31T04:29:06;31.87;;;9.67;;
20857;SDS011;10589;53.636;10.012;2023-03-31T04:31:33;30.10;;;9.90;;
20857;SDS011;10589;53.636;10.012;2023-03-31T04:34:02;22.10;;;9.13;;
20857;SDS011;10589;53.636;10.012;2023-03-31T04:36:30;29.30;;;10.87;;
20857;SDS011;10589;53.636;10.012;2023-03-31T04:38:57;30.90;;;9.73;;
20857;SDS011;10589;53.636;10.012;2023-03-31T04:41:23;29.90;;;10.43;;
20857;SDS011;10589;53.636;10.012;2023-03-31T04:43:51;31.87;;;10.40;;
20857;SDS011;10589;53.636;10.012;2023-03-31T04:46:17;23.10;;;10.20;;
20857;SDS011;10589;53.636;10.012;2023-03-31T04:48:43;30.30;;;10.33;;
20857;SDS011;10589;53.636;10.012;2023-03-31T04:51:08;31.20;;;11.37;;
20857;SDS011;10589;53.636;10.012;2023-03-31T04:53:34;36.40;;;11.10;;
20857;SDS011;10589;53.636;10.012;2023-03-31T04:56:00;32.20;;;12.50;;
20857;SDS011;10589;53.636;10.012;2023-03-31T04:58:26;37.57;;;12.10;;
20857;SDS011;10589;53.636;10.012;2023-03-31T05:00:52;23.73;;;10.23;;
20857;SDS011;10589;53.636;10.012;2023-03-31T05:03:18;31.83;;;12.70;;
20857;SDS011;10589;53.636;10.012;2023-03-31T05:05:44;39.77;;;13.17;;
20857;SDS011;10589;53.636;10.012;2023-03-31T05:08:09;32.73;;;12.87;;
20857;SDS011;10589;53.636;10.012;2023-03-31T05:10:35;35.47;;;12.60;;
20857;SDS011;10589;53.636;10.012;2023-03-31T05:13:00;35.20;;;12.57;;
20857;SDS011;10589;53.636;10.012;2023-03-31T05:15:26;36.03;;;13.10;;
20857;SDS011;10589;53.636;10.012;2023-03-31T05:17:52;38.50;;;13.80;;
20857;SDS011;10589;53.636;10.012;2023-03-31T05:20:20;31.60;;;13.20;;
20857;SDS011;10589;53.636;10.012;2023-03-31T05:22:45;30.87;;;13.00;;
20857;SDS011;10589;53.636;10.012;2023-03-31T05:25:12;31.17;;;13.43;;
20857;SDS011;10589;53.636;10.012;2023-03-31T05:27:43;32.10;;;12.30;;
20857;SDS011;10589;53.636;10.012;2023-03-31T05:30:11;29.77;;;12.97;;
20857;SDS011;10589;53.636;10.012;2023-03-31T05:32:38;31.90;;;13.17;;
20857;SDS011;10589;53.636;10.012;2023-03-31T05:35:04;33.87;;;13.03;;
20857;SDS011;10589;53.636;10.012;2023-03-31T05:37:31;36.20;;;13.60;;
20857;SDS011;10589;53.636;10.012;2023-03-31T05:39:57;32.97;;;13.63;;
20857;SDS011;10589;53.636;10.012;2023-03-31T05:42:23;33.87;;;13.67;;
20857;SDS011;10589;53.636;10.012;2023-03-31T05:44:49;31.50;;;14.07;;
20857;SDS011;10589;53.636;10.012;2023-03-31T05:47:15;34.90;;;13.27;;
20857;SDS011;10589;53.636;10.012;2023-03-31T05:49:41;32.67;;;13.13;;
20857;SDS011;10589;53.636;10.012;2023-03-31T05:52:07;36.93;;;14.17;;
20857;SDS011;10589;53.636;10.012;2023-03-31T05:54:33;31.33;;;12.80;;
20857;SDS011;10589;53.636;10.012;2023-03-31T05:56:59;31.77;;;13.73;;
20857;SDS011;10589;53.636;10.012;2023-03-31T05:59:24;27.07;;;11.50;;
20857;SDS011;10589;53.636;10.012;2023-03-31T06:01:50;28.43;;;12.10;;
20857;SDS011;10589;53.636;10.012;2023-03-31T06:04:16;33.37;;;12.13;;
20857;SDS011;10589;53.636;10.012;2023-03-31T06:06:41;30.60;;;12.10;;
20857;SDS011;10589;53.636;10.012;2023-03-31T06:09:08;32.83;;;12.13;;
20857;SDS011;10589;53.636;10.012;2023-03-31T06:11:37;32.93;;;11.60;;
20857;SDS011;10589;53.636;10.012;2023-03-31T06:14:03;29.77;;;12.50;;
20857;SDS011;10589;53.636;10.012;2023-03-31T06:16:29;24.93;;;10.87;;
20857;SDS011;10589;53.636;10.012;2023-03-31T06:18:54;27.30;;;10.77;;
20857;SDS011;10589;53.636;10.012;2023-03-31T06:21:20;24.07;;;11.20;;
20857;SDS011;10589;53.636;10.012;2023-03-31T06:23:46;31.80;;;11.27;;
20857;SDS011;10589;53.636;10.012;2023-03-31T06:26:13;30.20;;;11.07;;
20857;SDS011;10589;53.636;10.012;2023-03-31T06:28:41;32.30;;;10.63;;
20857;SDS011;10589;53.636;10.012;2023-03-31T06:31:08;35.47;;;11.10;;
20857;SDS011;10589;53.636;10.012;2023-03-31T06:33:36;26.17;;;9.97;;
20857;SDS011;10589;53.636;10.012;2023-03-31T06:36:03;25.90;;;10.63;;
20857;SDS011;10589;53.636;10.012;2023-03-31T06:38:30;26.53;;;9.70;;
20857;SDS011;10589;53.636;10.012;2023-03-31T06:41:01;22.47;;;9.80;;
20857;SDS011;10589;53.636;10.012;2023-03-31T06:43:26;24.80;;;9.90;;
20857;SDS011;10589;53.636;10.012;2023-03-31T06:45:52;25.03;;;9.90;;
20857;SDS011;10589;53.636;10.012;2023-03-31T06:48:18;27.80;;;9.67;;
20857;SDS011;10589;53.636;10.012;2023-03-31T06:50:44;28.43;;;10.67;;
20857;SDS011;10589;53.636;10.012;2023-03-31T06:53:10;28.13;;;9.97;;
20857;SDS011;10589;53.636;10.012;2023-03-31T06:55:36;27.60;;;9.77;;
20857;SDS011;10589;53.636;10.012;2023-03-31T06:58:02;24.97;;;9.10;;
20857;SDS011;10589;53.636;10.012;2023-03-31T07:00:30;20.10;;;8.80;;
20857;SDS011;10589;53.636;10.012;2023-03-31T07:02:56;26.10;;;9.43;;
20857;SDS011;10589;53.636;10.012;2023-03-31T07:05:22;24.33;;;9.50;;
20857;SDS011;10589;53.636;10.012;2023-03-31T07:07:53;25.87;;;9.67;;
20857;SDS011;10589;53.636;10.012;2023-03-31T07:10:19;21.10;;;8.93;;
20857;SDS011;10589;53.636;10.012;2023-03-31T07:12:45;29.60;;;8.87;;
20857;SDS011;10589;53.636;10.012;2023-03-31T07:15:10;25.50;;;9.13;;
20857;SDS011;10589;53.636;10.012;2023-03-31T07:17:36;17.00;;;8.00;;
20857;SDS011;10589;53.636;10.012;2023-03-31T07:20:06;23.20;;;8.90;;
20857;SDS011;10589;53.636;10.012;2023-03-31T07:22:42;20.57;;;8.90;;
20857;SDS011;10589;53.636;10.012;2023-03-31T07:25:10;26.87;;;9.73;;
20857;SDS011;10589;53.636;10.012;2023-03-31T07:27:36;24.40;;;9.13;;
20857;SDS011;10589;53.636;10.012;2023-03-31T07:30:06;20.43;;;8.63;;
20857;SDS011;10589;53.636;10.012;2023-03-31T07:32:32;22.17;;;9.33;;
20857;SDS011;10589;53.636;10.012;2023-03-31T07:34:59;20.20;;;8.70;;
20857;SDS011;10589;53.636;10.012;2023-03-31T07:37:25;16.47;;;9.13;;
20857;SDS011;10589;53.636;10.012;2023-03-31T07:39:50;19.93;;;8.13;;
20857;SDS011;10589;53.636;10.012;2023-03-31T07:42:16;19.03;;;7.97;;
20857;SDS011;10589;53.636;10.012;2023-03-31T07:44:42;21.20;;;8.50;;
20857;SDS011;10589;53.636;10.012;2023-03-31T07:47:07;20.47;;;8.07;;
20857;SDS011;10589;53.636;10.012;2023-03-31T07:49:33;17.53;;;7.57;;
20857;SDS011;10589;53.636;10.012;2023-03-31T07:52:00;18.23;;;7.50;;
20857;SDS011;10589;53.636;10.012;2023-03-31T07:54:25;14.53;;;8.20;;
20857;SDS011;10589;53.636;10.012;2023-03-31T07:56:51;12.67;;;7.80;;
20857;SDS011;10589;53.636;10.012;2023-03-31T07:59:17;13.30;;;7.60;;
20857;SDS011;10589;53.636;10.012;2023-03-31T08:01:43;12.20;;;6.53;;
20857;SDS011;10589;53.636;10.012;2023-03-31T08:04:09;12.37;;;6.67;;
20857;SDS011;10589;53.636;10.012;2023-03-31T08:06:36;12.77;;;6.23;;
20857;SDS011;10589;53.636;10.012;2023-03-31T08:09:03;10.37;;;5.43;;
20857;SDS011;10589;53.636;10.012;2023-03-31T08:11:31;10.27;;;5.93;;
20857;SDS011;10589;53.636;10.012;2023-03-31T08:13:56;10.80;;;5.53;;
20857;SDS011;10589;53.636;10.012;2023-03-31T08:16:22;11.67;;;5.03;;
20857;SDS011;10589;53.636;10.012;2023-03-31T08:18:48;10.23;;;5.03;;
20857;SDS011;10589;53.636;10.012;2023-03-31T08:21:14;10.77;;;5.63;;
20857;SDS011;10589;53.636;10.012;2023-03-31T08:23:39;11.43;;;6.13;;
20857;SDS011;10589;53.636;10.012;2023-03-31T08:26:06;10.93;;;5.00;;
20857;SDS011;10589;53.636;10.012;2023-03-31T08:28:36;11.50;;;5.40;;
20857;SDS011;10589;53.636;10.012;2023-03-31T08:31:05;12.30;;;5.33;;
20857;SDS011;10589;53.636;10.012;2023-03-31T08:33:32;15.23;;;6.63;;
20857;SDS011;10589;53.636;10.012;2023-03-31T08:36:04;12.13;;;5.83;;
20857;SDS011;10589;53.636;10.012;2023-03-31T08:38:34;13.63;;;6.40;;
20857;SDS011;10589;53.636;10.012;2023-03-31T08:41:21;10.57;;;5.83;;
20857;SDS011;10589;53.636;10.012;2023-03-31T08:44:06;11.13;;;6.10;;
20857;SDS011;10589;53.636;10.012;2023-03-31T08:46:37;10.30;;;5.83;;
20857;SDS011;10589;53.636;10.012;2023-03-31T08:49:03;16.90;;;6.30;;
20857;SDS011;10589;53.636;10.012;2023-03-31T08:51:40;13.63;;;5.80;;
20857;SDS011;10589;53.636;10.012;2023-03-31T08:56:54;14.17;;;6.43;;
20857;SDS011;10589;53.636;10.012;2023-03-31T08:59:30;12.27;;;5.97;;
20857;SDS011;10589;53.636;10.012;2023-03-31T09:07:37;10.90;;;5.43;;
20857;SDS011;10589;53.636;10.012;2023-03-31T09:15:28;11.80;;;6.13;;
20857;SDS011;10589;53.636;10.012;2023-03-31T09:23:47;12.43;;;6.00;;
20857;SDS011;10589;53.636;10.012;2023-03-31T09:26:23;10.43;;;6.90;;
20857;SDS011;10589;53.636;10.012;2023-03-31T09:29:02;14.27;;;6.17;;
20857;SDS011;10589;53.636;10.012;2023-03-31T09:31:32;11.40;;;6.20;;
20857;SDS011;10589;53.636;10.012;2023-03-31T09:34:00;13.00;;;5.87;;
20857;SDS011;10589;53.636;10.012;2023-03-31T09:36:34;11.03;;;6.27;;
20857;SDS011;10589;53.636;10.012;2023-03-31T09:38:59;9.17;;;5.47;;
20857;SDS011;10589;53.636;10.012;2023-03-31T09:41:25;7.37;;;4.60;;
20857;SDS011;10589;53.636;10.012;2023-03-31T09:43:51;7.37;;;4.83;;
20857;SDS011;10589;53.636;10.012;2023-03-31T09:46:23;8.00;;;3.90;;
20857;SDS011;10589;53.636;10.012;2023-03-31T09:49:30;10.83;;;4.10;;
20857;SDS011;10589;53.636;10.012;2023-03-31T09:54:52;6.00;;;3.33;;
20857;SDS011;10589;53.636;10.012;2023-03-31T09:57:25;7.90;;;3.70;;
20857;SDS011;10589;53.636;10.012;2023-03-31T10:02:43;9.03;;;3.47;;
20857;SDS011;10589;53.636;10.012;2023-03-31T10:05:20;7.43;;;3.70;;
20857;SDS011;10589;53.636;10.012;2023-03-31T10:08:38;6.63;;;3.63;;
20857;SDS011;10589;53.636;10.012;2023-03-31T10:10:46;10.67;;;3.40;;
20857;SDS011;10589;53.636;10.012;2023-03-31T10:13:18;9.00;;;4.13;;
20857;SDS011;10589;53.636;10.012;2023-03-31T10:15:50;8.50;;;4.40;;
20857;SDS011;10589;53.636;10.012;2023-03-31T10:18:18;7.73;;;3.80;;
20857;SDS011;10589;53.636;10.012;2023-03-31T10:20:49;7.80;;;3.70;;
20857;SDS011;10589;53.636;10.012;2023-03-31T10:23:26;9.53;;;4.70;;
20857;SDS011;10589;53.636;10.012;2023-03-31T10:25:54;9.67;;;4.13;;
20857;SDS011;10589;53.636;10.012;2023-03-31T10:28:20;9.93;;;3.93;;
20857;SDS011;10589;53.636;10.012;2023-03-31T10:30:56;7.20;;;4.50;;
20857;SDS011;10589;53.636;10.012;2023-03-31T10:33:28;7.03;;;4.80;;
20857;SDS011;10589;53.636;10.012;2023-03-31T10:35:59;7.13;;;4.33;;
20857;SDS011;10589;53.636;10.012;2023-03-31T10:38:30;10.80;;;5.17;;
20857;SDS011;10589;53.636;10.012;2023-03-31T10:41:06;7.80;;;4.80;;
20857;SDS011;10589;53.636;10.012;2023-03-31T10:43:38;9.43;;;4.57;;
20857;SDS011;10589;53.636;10.012;2023-03-31T10:46:05;6.60;;;4.30;;
20857;SDS011;10589;53.636;10.012;2023-03-31T10:48:32;5.90;;;4.00;;
20857;SDS011;10589;53.636;10.012;2023-03-31T10:51:14;9.43;;;4.73;;
20857;SDS011;10589;53.636;10.012;2023-03-31T10:53:49;5.90;;;4.33;;
20857;SDS011;10589;53.636;10.012;2023-03-31T10:56:23;7.40;;;4.70;;
20857;SDS011;10589;53.636;10.012;2023-03-31T10:58:59;6.67;;;3.00;;
20857;SDS011;10589;53.636;10.012;2023-03-31T11:12:25;7.50;;;3.00;;
20857;SDS011;10589;53.636;10.012;2023-03-31T11:17:30;5.20;;;2.93;;
20857;SDS011;10589;53.636;10.012;2023-03-31T11:22:33;6.17;;;3.13;;
20857;SDS011;10589;53.636;10.012;2023-03-31T11:25:13;6.10;;;3.03;;
20857;SDS011;10589;53.636;10.012;2023-03-31T11:33:29;6.30;;;3.00;;
20857;SDS011;10589;53.636;10.012;2023-03-31T11:41:39;8.17;;;2.70;;
20857;SDS011;10589;53.636;10.012;2023-03-31T11:44:15;5.87;;;2.20;;
20857;SDS011;10589;53.636;10.012;2023-03-31T11:46:45;5.17;;;2.17;;
20857;SDS011;10589;53.636;10.012;2023-03-31T11:49:18;7.13;;;2.67;;
20857;SDS011;10589;53.636;10.012;2023-03-31T11:52:01;6.53;;;2.73;;
20857;SDS011;10589;53.636;10.012;2023-03-31T11:54:38;5.13;;;2.33;;
20857;SDS011;10589;53.636;10.012;2023-03-31T11:57:12;6.50;;;2.57;;
20857;SDS011;10589;53.636;10.012;2023-03-31T11:59:44;4.43;;;2.43;;
20857;SDS011;10589;53.636;10.012;2023-03-31T12:02:17;6.17;;;2.90;;
20857;SDS011;10589;53.636;10.012;2023-03-31T12:04:49;6.77;;;2.77;;
20857;SDS011;10589;53.636;10.012;2023-03-31T12:12:31;3.10;;;1.90;;
20857;SDS011;10589;53.636;10.012;2023-03-31T12:15:21;4.60;;;2.00;;
20857;SDS011;10589;53.636;10.012;2023-03-31T12:18:08;4.37;;;1.90;;
20857;SDS011;10589;53.636;10.012;2023-03-31T12:20:41;5.83;;;2.27;;
20857;SDS011;10589;53.636;10.012;2023-03-31T12:23:38;5.90;;;2.93;;
20857;SDS011;10589;53.636;10.012;2023-03-31T12:26:24;5.40;;;2.60;;
20857;SDS011;10589;53.636;10.012;2023-03-31T12:29:19;7.47;;;2.73;;
20857;SDS011;10589;53.636;10.012;2023-03-31T12:31:56;5.17;;;2.20;;
20857;SDS011;10589;53.636;10.012;2023-03-31T12:34:25;7.27;;;2.33;;
20857;SDS011;10589;53.636;10.012;2023-03-31T12:37:16;7.83;;;3.07;;
20857;SDS011;10589;53.636;10.012;2023-03-31T12:43:06;4.97;;;2.70;;
20857;SDS011;10589;53.636;10.012;2023-03-31T12:45:37;7.63;;;3.73;;
20857;SDS011;10589;53.636;10.012;2023-03-31T12:50:52;7.20;;;3.60;;
20857;SDS011;10589;53.636;10.012;2023-03-31T12:53:47;6.13;;;3.47;;
20857;SDS011;10589;53.636;10.012;2023-03-31T12:56:25;8.47;;;4.23;;
20857;SDS011;10589;53.636;10.012;2023-03-31T12:58:51;5.33;;;4.07;;
20857;SDS011;10589;53.636;10.012;2023-03-31T13:01:17;6.93;;;5.03;;
20857;SDS011;10589;53.636;10.012;2023-03-31T13:08:55;8.10;;;5.50;;
20857;SDS011;10589;53.636;10.012;2023-03-31T13:11:22;10.03;;;5.93;;
20857;SDS011;10589;53.636;10.012;2023-03-31T13:14:02;7.40;;;5.17;;
20857;SDS011;10589;53.636;10.012;2023-03-31T13:16:38;10.10;;;5.37;;
20857;SDS011;10589;53.636;10.012;2023-03-31T13:19:04;9.33;;;5.40;;
20857;SDS011;10589;53.636;10.012;2023-03-31T13:21:30;7.63;;;4.93;;
20857;SDS011;10589;53.636;10.012;2023-03-31T13:23:59;6.63;;;4.90;;
20857;SDS011;10589;53.636;10.012;2023-03-31T13:34:32;5.73;;;4.50;;
20857;SDS011;10589;53.636;10.012;2023-03-31T13:45:51;9.20;;;4.90;;
20857;SDS011;10589;53.636;10.012;2023-03-31T14:05:27;5.17;;;3.13;;
20857;SDS011;10589;53.636;10.012;2023-03-31T14:08:35;4.50;;;3.10;;
20857;SDS011;10589;53.636;10.012;2023-03-31T14:11:31;6.20;;;2.90;;
20857;SDS011;10589;53.636;10.012;2023-03-31T14:13:57;7.20;;;3.30;;
20857;SDS011;10589;53.636;10.012;2023-03-31T14:16:25;4.93;;;3.10;;
20857;SDS011;10589;53.636;10.012;2023-03-31T14:18:52;6.33;;;3.20;;
20857;SDS011;10589;53.636;10.012;2023-03-31T14:21:28;5.20;;;3.37;;
20857;SDS011;10589;53.636;10.012;2023-03-31T14:27:10;4.53;;;3.00;;
20857;SDS011;10589;53.636;10.012;2023-03-31T14:29:59;5.20;;;3.00;;
20857;SDS011;10589;53.636;10.012;2023-03-31T14:32:39;3.87;;;2.80;;
20857;SDS011;10589;53.636;10.012;2023-03-31T14:35:21;5.03;;;2.70;;
20857;SDS011;10589;53.636;10.012;2023-03-31T14:37:50;4.80;;;2.50;;
20857;SDS011;10589;53.636;10.012;2023-03-31T14:40:17;3.57;;;2.30;;
20857;SDS011;10589;53.636;10.012;2023-03-31T14:42:44;5.50;;;2.50;;
20857;SDS011;10589;53.636;10.012;2023-03-31T14:45:18;8.60;;;2.50;;
20857;SDS011;10589;53.636;10.012;2023-03-31T14:47:55;5.03;;;2.23;;
20857;SDS011;10589;53.636;10.012;2023-03-31T14:50:43;4.20;;;2.50;;
20857;SDS011;10589;53.636;10.012;2023-03-31T14:53:14;4.90;;;2.50;;
20857;SDS011;10589;53.636;10.012;2023-03-31T14:55:47;3.63;;;2.27;;
20857;SDS011;10589;53.636;10.012;2023-03-31T14:58:17;3.60;;;2.30;;
20857;SDS011;10589;53.636;10.012;2023-03-31T15:00:58;3.63;;;2.23;;
20857;SDS011;10589;53.636;10.012;2023-03-31T15:03:26;2.73;;;2.43;;
20857;SDS011;10589;53.636;10.012;2023-03-31T15:05:55;3.37;;;2.07;;
20857;SDS011;10589;53.636;10.012;2023-03-31T15:08:23;3.77;;;2.23;;
20857;SDS011;10589;53.636;10.012;2023-03-31T15:10:53;3.23;;;1.80;;
20857;SDS011;10589;53.636;10.012;2023-03-31T15:13:24;4.20;;;1.57;;
20857;SDS011;10589;53.636;10.012;2023-03-31T15:15:56;4.10;;;1.53;;
20857;SDS011;10589;53.636;10.012;2023-03-31T15:18:24;1.50;;;1.30;;
20857;SDS011;10589;53.636;10.012;2023-03-31T15:20:51;3.50;;;1.43;;
20857;SDS011;10589;53.636;10.012;2023-03-31T15:23:24;2.43;;;1.47;;
20857;SDS011;10589;53.636;10.012;2023-03-31T15:28:30;5.30;;;1.77;;
20857;SDS011;10589;53.636;10.012;2023-03-31T15:31:01;4.30;;;1.93;;
20857;SDS011;10589;53.636;10.012;2023-03-31T15:33:31;1.80;;;1.43;;
20857;SDS011;10589;53.636;10.012;2023-03-31T15:36:00;1.83;;;1.63;;
20857;SDS011;10589;53.636;10.012;2023-03-31T15:38:27;2.10;;;1.57;;
20857;SDS011;10589;53.636;10.012;2023-03-31T15:40:55;2.60;;;1.50;;
20857;SDS011;10589;53.636;10.012;2023-03-31T15:43:31;2.77;;;1.43;;
20857;SDS011;10589;53.636;10.012;2023-03-31T15:46:10;3.47;;;1.40;;
20857;SDS011;10589;53.636;10.012;2023-03-31T15:48:58;2.87;;;1.57;;
20857;SDS011;10589;53.636;10.012;2023-03-31T15:51:25;2.00;;;1.20;;
20857;SDS011;10589;53.636;10.012;2023-03-31T15:54:13;2.33;;;1.40;;
20857;SDS011;10589;53.636;10.012;2023-03-31T15:57:02;1.60;;;1.20;;
20857;SDS011;10589;53.636;10.012;2023-03-31T15:59:30;2.90;;;1.17;;
20857;SDS011;10589;53.636;10.012;2023-03-31T16:02:24;3.63;;;1.00;;
20857;SDS011;10589;53.636;10.012;2023-03-31T16:04:55;2.77;;;1.13;;
20857;SDS011;10589;53.636;10.012;2023-03-31T16:07:27;1.47;;;1.00;;
20857;SDS011;10589;53.636;10.012;2023-03-31T16:10:04;3.83;;;1.23;;
20857;SDS011;10589;53.636;10.012;2023-03-31T16:12:40;1.43;;;0.83;;
20857;SDS011;10589;53.636;10.012;2023-03-31T16:15:18;2.73;;;1.20;;
20857;SDS011;10589;53.636;10.012;2023-03-31T16:17:50;1.90;;;1.00;;
20857;SDS011;10589;53.636;10.012;2023-03-31T16:20:26;1.60;;;0.97;;
20857;SDS011;10589;53.636;10.012;2023-03-31T16:22:56;5.13;;;1.20;;
20857;SDS011;10589;53.636;10.012;2023-03-31T16:25:24;2.20;;;1.13;;
20857;SDS011;10589;53.636;10.012;2023-03-31T16:27:58;1.47;;;0.90;;
20857;SDS011;10589;53.636;10.012;2023-03-31T16:30:36;2.97;;;1.30;;
20857;SDS011;10589;53.636;10.012;2023-03-31T16:33:05;2.40;;;1.20;;
20857;SDS011;10589;53.636;10.012;2023-03-31T16:35:36;1.60;;;1.20;;
20857;SDS011;10589;53.636;10.012;2023-03-31T16:38:07;1.43;;;1.03;;
20857;SDS011;10589;53.636;10.012;2023-03-31T16:40:38;1.90;;;1.30;;
20857;SDS011;10589;53.636;10.012;2023-03-31T16:45:32;2.40;;;1.10;;
20857;SDS011;10589;53.636;10.012;2023-03-31T16:47:57;3.47;;;1.50;;
20857;SDS011;10589;53.636;10.012;2023-03-31T16:50:23;2.47;;;1.63;;
20857;SDS011;10589;53.636;10.012;2023-03-31T16:52:48;2.27;;;1.43;;
20857;SDS011;10589;53.636;10.012;2023-03-31T16:55:14;2.47;;;1.63;;
20857;SDS011;10589;53.636;10.012;2023-03-31T16:57:40;2.57;;;1.63;;
20857;SDS011;10589;53.636;10.012;2023-03-31T17:00:06;2.83;;;1.60;;
20857;SDS011;10589;53.636;10.012;2023-03-31T17:02:32;3.77;;;1.83;;
20857;SDS011;10589;53.636;10.012;2023-03-31T17:04:59;4.20;;;1.80;;
20857;SDS011;10589;53.636;10.012;2023-03-31T17:07:25;1.90;;;1.70;;
20857;SDS011;10589;53.636;10.012;2023-03-31T17:09:51;2.07;;;1.80;;
20857;SDS011;10589;53.636;10.012;2023-03-31T17:12:16;3.40;;;2.13;;
20857;SDS011;10589;53.636;10.012;2023-03-31T17:14:42;3.37;;;1.97;;
20857;SDS011;10589;53.636;10.012;2023-03-31T17:17:08;2.97;;;2.20;;
20857;SDS011;10589;53.636;10.012;2023-03-31T17:19:34;2.67;;;1.73;;
20857;SDS011;10589;53.636;10.012;2023-03-31T17:22:00;4.20;;;1.90;;
20857;SDS011;10589;53.636;10.012;2023-03-31T17:24:27;1.90;;;1.70;;
20857;SDS011;10589;53.636;10.012;2023-03-31T17:26:53;3.00;;;2.00;;
20857;SDS011;10589;53.636;10.012;2023-03-31T17:29:19;2.47;;;1.80;;
20857;SDS011;10589;53.636;10.012;2023-03-31T17:31:44;2.93;;;1.80;;
20857;SDS011;10589;53.636;10.012;2023-03-31T17:34:10;2.27;;;2.00;;
20857;SDS011;10589;53.636;10.012;2023-03-31T17:36:36;1.77;;;1.40;;
20857;SDS011;10589;53.636;10.012;2023-03-31T17:39:02;2.50;;;1.50;;
20857;SDS011;10589;53.636;10.012;2023-03-31T17:41:29;2.63;;;1.60;;
20857;SDS011;10589;53.636;10.012;2023-03-31T17:43:54;3.13;;;1.50;;
20857;SDS011;10589;53.636;10.012;2023-03-31T17:46:20;2.03;;;1.63;;
20857;SDS011;10589;53.636;10.012;2023-03-31T17:48:46;2.17;;;1.77;;
20857;SDS011;10589;53.636;10.012;2023-03-31T17:51:16;2.00;;;1.63;;
20857;SDS011;10589;53.636;10.012;2023-03-31T17:53:43;3.50;;;1.80;;
20857;SDS011;10589;53.636;10.012;2023-03-31T17:56:11;2.77;;;2.20;;
20857;SDS011;10589;53.636;10.012;2023-03-31T17:58:37;2.77;;;1.93;;
20857;SDS011;10589;53.636;10.012;2023-03-31T18:01:03;4.70;;;2.53;;
20857;SDS011;10589;53.636;10.012;2023-03-31T18:03:31;4.53;;;2.20;;
20857;SDS011;10589;53.636;10.012;2023-03-31T18:06:08;2.90;;;2.17;;
20857;SDS011;10589;53.636;10.012;2023-03-31T18:08:35;3.60;;;2.07;;
20857;SDS011;10589;53.636;10.012;2023-03-31T18:11:01;3.03;;;2.20;;
20857;SDS011;10589;53.636;10.012;2023-03-31T18:13:29;4.00;;;2.90;;
20857;SDS011;10589;53.636;10.012;2023-03-31T18:15:56;4.53;;;3.03;;
20857;SDS011;10589;53.636;10.012;2023-03-31T18:18:22;3.27;;;2.60;;
20857;SDS011;10589;53.636;10.012;2023-03-31T18:20:50;4.60;;;3.57;;
20857;SDS011;10589;53.636;10.012;2023-03-31T18:23:16;7.03;;;3.63;;
20857;SDS011;10589;53.636;10.012;2023-03-31T18:25:42;4.23;;;3.50;;
20857;SDS011;10589;53.636;10.012;2023-03-31T18:28:10;4.83;;;3.10;;
20857;SDS011;10589;53.636;10.012;2023-03-31T18:30:36;4.73;;;3.00;;
20857;SDS011;10589;53.636;10.012;2023-03-31T18:33:02;7.53;;;3.33;;
20857;SDS011;10589;53.636;10.012;2023-03-31T18:35:28;4.93;;;3.43;;
20857;SDS011;10589;53.636;10.012;2023-03-31T18:37:53;4.17;;;3.00;;
20857;SDS011;10589;53.636;10.012;2023-03-31T18:40:19;6.40;;;3.00;;
20857;SDS011;10589;53.636;10.012;2023-03-31T18:42:45;4.90;;;3.10;;
20857;SDS011;10589;53.636;10.012;2023-03-31T18:45:12;3.80;;;2.63;;
20857;SDS011;10589;53.636;10.012;2023-03-31T18:47:38;3.37;;;3.00;;
20857;SDS011;10589;53.636;10.012;2023-03-31T18:50:04;6.43;;;3.10;;
20857;SDS011;10589;53.636;10.012;2023-03-31T18:52:30;5.83;;;3.87;;
20857;SDS011;10589;53.636;10.012;2023-03-31T18:54:55;5.17;;;2.93;;
20857;SDS011;10589;53.636;10.012;2023-03-31T18:57:21;4.83;;;2.90;;
20857;SDS011;10589;53.636;10.012;2023-03-31T18:59:47;6.43;;;3.77;;
20857;SDS011;10589;53.636;10.012;2023-03-31T19:02:13;5.47;;;3.80;;
20857;SDS011;10589;53.636;10.012;2023-03-31T19:04:42;5.00;;;3.97;;
20857;SDS011;10589;53.636;10.012;2023-03-31T19:07:08;6.67;;;3.47;;
20857;SDS011;10589;53.636;10.012;2023-03-31T19:09:34;6.67;;;4.13;;
20857;SDS011;10589;53.636;10.012;2023-03-31T19:12:00;8.10;;;3.83;;
20857;SDS011;10589;53.636;10.012;2023-03-31T19:14:26;4.57;;;3.50;;
20857;SDS011;10589;53.636;10.012;2023-03-31T19:16:51;4.57;;;3.40;;
20857;SDS011;10589;53.636;10.012;2023-03-31T19:19:18;5.43;;;3.53;;
20857;SDS011;10589;53.636;10.012;2023-03-31T19:21:44;5.70;;;3.83;;
20857;SDS011;10589;53.636;10.012;2023-03-31T19:24:10;6.67;;;3.90;;
20857;SDS011;10589;53.636;10.012;2023-03-31T19:26:36;5.90;;;4.10;;
20857;SDS011;10589;53.636;10.012;2023-03-31T19:29:02;5.47;;;4.00;;
20857;SDS011;10589;53.636;10.012;2023-03-31T19:31:29;8.07;;;4.80;;
20857;SDS011;10589;53.636;10.012;2023-03-31T19:34:03;6.03;;;4.10;;
20857;SDS011;10589;53.636;10.012;2023-03-31T19:36:30;5.30;;;4.77;;
20857;SDS011;10589;53.636;10.012;2023-03-31T19:38:55;6.07;;;4.47;;
20857;SDS011;10589;53.636;10.012;2023-03-31T19:41:21;5.07;;;4.03;;
20857;SDS011;10589;53.636;10.012;2023-03-31T19:43:47;6.33;;;4.13;;
20857;SDS011;10589;53.636;10.012;2023-03-31T19:46:13;6.47;;;4.13;;
20857;SDS011;10589;53.636;10.012;2023-03-31T19:48:39;4.97;;;3.97;;
20857;SDS011;10589;53.636;10.012;2023-03-31T19:51:05;6.10;;;4.73;;
20857;SDS011;10589;53.636;10.012;2023-03-31T19:53:32;5.17;;;4.40;;
20857;SDS011;10589;53.636;10.012;2023-03-31T19:56:02;8.70;;;4.07;;
20857;SDS011;10589;53.636;10.012;2023-03-31T19:58:30;7.00;;;4.90;;
20857;SDS011;10589;53.636;10.012;2023-03-31T20:00:59;5.97;;;5.03;;
20857;SDS011;10589;53.636;10.012;2023-03-31T20:03:25;9.90;;;5.63;;
20857;SDS011;10589;53.636;10.012;2023-03-31T20:05:51;7.77;;;5.43;;
20857;SDS011;10589;53.636;10.012;2023-03-31T20:08:18;10.00;;;5.40;;
20857;SDS011;10589;53.636;10.012;2023-03-31T20:10:43;6.60;;;5.07;;
20857;SDS011;10589;53.636;10.012;2023-03-31T20:13:09;7.37;;;5.03;;
20857;SDS011;10589;53.636;10.012;2023-03-31T20:15:35;6.90;;;5.37;;
20857;SDS011;10589;53.636;10.012;2023-03-31T20:18:01;6.07;;;5.43;;
20857;SDS011;10589;53.636;10.012;2023-03-31T20:20:27;10.23;;;5.90;;